sensor_id;sensor_type;location;lat;lon;timestamp;P1;durP1;ratioP1;P2;durP2;ratioP2
51228;SDS011;37304;52.216;6.874;2022-11-13T00:02:41;15.83;;;9.10;;
51228;SDS011;37304;52.216;6.874;2022-11-13T00:07:41;19.00;;;10.13;;
51228;SDS011;37304;52.216;6.874;2022-11-13T00:12:42;16.90;;;9.13;;
51228;SDS011;37304;52.216;6.874;2022-11-13T00:17:42;17.55;;;9.07;;
51228;SDS011;37304;52.216;6.874;2022-11-13T00:22:43;18.83;;;10.93;;
51228;SDS011;37304;52.216;6.874;2022-11-13T00:27:45;14.80;;;9.18;;
51228;SDS011;37304;52.216;6.874;2022-11-13T00:32:45;16.15;;;9.27;;
51228;SDS011;37304;52.216;6.874;2022-11-13T00:37:45;15.67;;;10.60;;
51228;SDS011;37304;52.216;6.874;2022-11-13T00:42:46;15.60;;;8.80;;
51228;SDS011;37304;52.216;6.874;2022-11-13T00:47:46;15.40;;;9.50;;
51228;SDS011;37304;52.216;6.874;2022-11-13T00:52:46;12.53;;;8.00;;
51228;SDS011;37304;52.216;6.874;2022-11-13T00:57:47;14.70;;;8.63;;
51228;SDS011;37304;52.216;6.874;2022-11-13T01:02:47;12.77;;;8.57;;
51228;SDS011;37304;52.216;6.874;2022-11-13T01:07:48;13.70;;;7.57;;
51228;SDS011;37304;52.216;6.874;2022-11-13T01:12:48;15.63;;;8.67;;
51228;SDS011;37304;52.216;6.874;2022-11-13T01:17:48;15.40;;;8.43;;
51228;SDS011;37304;52.216;6.874;2022-11-13T01:22:50;13.45;;;8.55;;
51228;SDS011;37304;52.216;6.874;2022-11-13T01:27:51;14.53;;;8.73;;
51228;SDS011;37304;52.216;6.874;2022-11-13T01:32:51;14.07;;;8.23;;
51228;SDS011;37304;52.216;6.874;2022-11-13T01:37:51;13.53;;;7.73;;
51228;SDS011;37304;52.216;6.874;2022-11-13T01:42:52;14.83;;;7.93;;
51228;SDS011;37304;52.216;6.874;2022-11-13T01:47:55;12.68;;;7.60;;
51228;SDS011;37304;52.216;6.874;2022-11-13T01:52:57;13.23;;;7.38;;
51228;SDS011;37304;52.216;6.874;2022-11-13T01:57:57;14.77;;;7.73;;
51228;SDS011;37304;52.216;6.874;2022-11-13T02:02:59;14.80;;;7.70;;
51228;SDS011;37304;52.216;6.874;2022-11-13T02:07:59;12.83;;;7.50;;
51228;SDS011;37304;52.216;6.874;2022-11-13T02:13:00;10.30;;;7.05;;
51228;SDS011;37304;52.216;6.874;2022-11-13T02:18:01;15.35;;;8.70;;
51228;SDS011;37304;52.216;6.874;2022-11-13T02:23:09;11.95;;;7.80;;
51228;SDS011;37304;52.216;6.874;2022-11-13T02:28:41;12.98;;;7.35;;
51228;SDS011;37304;52.216;6.874;2022-11-13T02:33:41;12.27;;;6.68;;
51228;SDS011;37304;52.216;6.874;2022-11-13T02:38:42;11.63;;;6.57;;
51228;SDS011;37304;52.216;6.874;2022-11-13T02:43:42;10.50;;;7.03;;
51228;SDS011;37304;52.216;6.874;2022-11-13T02:48:44;9.67;;;6.47;;
51228;SDS011;37304;52.216;6.874;2022-11-13T02:53:45;14.32;;;7.82;;
51228;SDS011;37304;52.216;6.874;2022-11-13T02:58:45;8.73;;;6.60;;
51228;SDS011;37304;52.216;6.874;2022-11-13T03:03:50;10.82;;;6.25;;
51228;SDS011;37304;52.216;6.874;2022-11-13T03:08:51;9.82;;;6.43;;
51228;SDS011;37304;52.216;6.874;2022-11-13T03:13:53;8.32;;;5.38;;
51228;SDS011;37304;52.216;6.874;2022-11-13T03:18:54;9.85;;;6.15;;
51228;SDS011;37304;52.216;6.874;2022-11-13T03:23:55;10.10;;;7.10;;
51228;SDS011;37304;52.216;6.874;2022-11-13T03:28:55;8.23;;;5.50;;
51228;SDS011;37304;52.216;6.874;2022-11-13T03:33:56;10.32;;;6.50;;
51228;SDS011;37304;52.216;6.874;2022-11-13T03:38:57;10.45;;;5.50;;
51228;SDS011;37304;52.216;6.874;2022-11-13T03:43:58;7.47;;;5.18;;
51228;SDS011;37304;52.216;6.874;2022-11-13T03:48:58;9.70;;;6.07;;
51228;SDS011;37304;52.216;6.874;2022-11-13T03:53:58;8.00;;;5.03;;
51228;SDS011;37304;52.216;6.874;2022-11-13T03:58:59;8.20;;;5.28;;
51228;SDS011;37304;52.216;6.874;2022-11-13T04:03:59;8.80;;;4.70;;
51228;SDS011;37304;52.216;6.874;2022-11-13T04:09:02;9.27;;;4.93;;
51228;SDS011;37304;52.216;6.874;2022-11-13T04:14:03;7.90;;;4.70;;
51228;SDS011;37304;52.216;6.874;2022-11-13T04:19:03;8.57;;;4.93;;
51228;SDS011;37304;52.216;6.874;2022-11-13T04:24:04;7.30;;;4.40;;
51228;SDS011;37304;52.216;6.874;2022-11-13T04:29:04;8.18;;;4.72;;
51228;SDS011;37304;52.216;6.874;2022-11-13T04:34:05;7.77;;;4.40;;
51228;SDS011;37304;52.216;6.874;2022-11-13T04:39:05;9.90;;;5.07;;
51228;SDS011;37304;52.216;6.874;2022-11-13T04:44:06;7.10;;;4.57;;
51228;SDS011;37304;52.216;6.874;2022-11-13T04:49:06;7.87;;;4.53;;
51228;SDS011;37304;52.216;6.874;2022-11-13T04:54:07;9.23;;;4.78;;
51228;SDS011;37304;52.216;6.874;2022-11-13T04:59:10;7.57;;;4.83;;
51228;SDS011;37304;52.216;6.874;2022-11-13T05:04:12;7.28;;;4.90;;
51228;SDS011;37304;52.216;6.874;2022-11-13T05:09:13;11.30;;;5.20;;
51228;SDS011;37304;52.216;6.874;2022-11-13T05:14:15;6.70;;;4.40;;
51228;SDS011;37304;52.216;6.874;2022-11-13T05:19:15;7.40;;;4.70;;
51228;SDS011;37304;52.216;6.874;2022-11-13T05:24:16;11.45;;;5.40;;
51228;SDS011;37304;52.216;6.874;2022-11-13T05:29:17;9.27;;;4.93;;
51228;SDS011;37304;52.216;6.874;2022-11-13T05:34:17;8.60;;;5.43;;
51228;SDS011;37304;52.216;6.874;2022-11-13T05:39:18;7.20;;;4.50;;
51228;SDS011;37304;52.216;6.874;2022-11-13T05:44:18;8.30;;;4.83;;
51228;SDS011;37304;52.216;6.874;2022-11-13T05:49:18;8.07;;;4.60;;
51228;SDS011;37304;52.216;6.874;2022-11-13T05:54:19;8.83;;;4.70;;
51228;SDS011;37304;52.216;6.874;2022-11-13T05:59:20;7.80;;;4.32;;
51228;SDS011;37304;52.216;6.874;2022-11-13T06:04:20;7.77;;;4.53;;
51228;SDS011;37304;52.216;6.874;2022-11-13T06:09:21;7.38;;;4.43;;
51228;SDS011;37304;52.216;6.874;2022-11-13T06:14:21;8.70;;;5.07;;
51228;SDS011;37304;52.216;6.874;2022-11-13T06:19:22;6.90;;;5.28;;
51228;SDS011;37304;52.216;6.874;2022-11-13T06:24:22;5.60;;;4.40;;
51228;SDS011;37304;52.216;6.874;2022-11-13T06:29:23;7.27;;;4.93;;
51228;SDS011;37304;52.216;6.874;2022-11-13T06:34:24;10.45;;;4.93;;
51228;SDS011;37304;52.216;6.874;2022-11-13T06:39:24;9.68;;;5.30;;
51228;SDS011;37304;52.216;6.874;2022-11-13T06:44:25;6.33;;;4.27;;
51228;SDS011;37304;52.216;6.874;2022-11-13T06:49:25;7.10;;;4.80;;
51228;SDS011;37304;52.216;6.874;2022-11-13T06:54:25;6.93;;;4.70;;
51228;SDS011;37304;52.216;6.874;2022-11-13T06:59:26;7.07;;;4.23;;
51228;SDS011;37304;52.216;6.874;2022-11-13T07:04:26;7.47;;;5.20;;
51228;SDS011;37304;52.216;6.874;2022-11-13T07:09:26;10.43;;;5.73;;
51228;SDS011;37304;52.216;6.874;2022-11-13T07:14:27;10.77;;;5.20;;
51228;SDS011;37304;52.216;6.874;2022-11-13T07:19:27;8.03;;;4.63;;
51228;SDS011;37304;52.216;6.874;2022-11-13T07:24:28;9.33;;;4.80;;
51228;SDS011;37304;52.216;6.874;2022-11-13T07:29:28;8.43;;;4.33;;
51228;SDS011;37304;52.216;6.874;2022-11-13T07:34:28;8.67;;;4.70;;
51228;SDS011;37304;52.216;6.874;2022-11-13T07:39:29;6.70;;;4.00;;
51228;SDS011;37304;52.216;6.874;2022-11-13T07:44:29;6.43;;;3.70;;
51228;SDS011;37304;52.216;6.874;2022-11-13T07:49:29;6.93;;;3.63;;
51228;SDS011;37304;52.216;6.874;2022-11-13T07:54:30;8.23;;;3.93;;
51228;SDS011;37304;52.216;6.874;2022-11-13T07:59:30;6.33;;;3.63;;
51228;SDS011;37304;52.216;6.874;2022-11-13T08:04:31;5.77;;;3.60;;
51228;SDS011;37304;52.216;6.874;2022-11-13T08:09:31;8.47;;;4.10;;
51228;SDS011;37304;52.216;6.874;2022-11-13T08:14:31;6.77;;;4.00;;
51228;SDS011;37304;52.216;6.874;2022-11-13T08:19:32;8.17;;;4.07;;
51228;SDS011;37304;52.216;6.874;2022-11-13T08:24:32;5.33;;;3.50;;
51228;SDS011;37304;52.216;6.874;2022-11-13T08:29:32;6.28;;;3.95;;
51228;SDS011;37304;52.216;6.874;2022-11-13T08:34:35;6.60;;;4.32;;
51228;SDS011;37304;52.216;6.874;2022-11-13T08:39:38;8.50;;;4.50;;
51228;SDS011;37304;52.216;6.874;2022-11-13T08:44:38;6.77;;;3.87;;
51228;SDS011;37304;52.216;6.874;2022-11-13T08:49:39;9.37;;;4.40;;
51228;SDS011;37304;52.216;6.874;2022-11-13T08:54:39;6.10;;;3.88;;
51228;SDS011;37304;52.216;6.874;2022-11-13T08:59:40;6.88;;;4.30;;
51228;SDS011;37304;52.216;6.874;2022-11-13T09:09:43;6.03;;;3.25;;
51228;SDS011;37304;52.216;6.874;2022-11-13T09:14:43;6.40;;;3.10;;
51228;SDS011;37304;52.216;6.874;2022-11-13T09:19:43;4.67;;;3.27;;
51228;SDS011;37304;52.216;6.874;2022-11-13T09:24:44;5.47;;;2.80;;
51228;SDS011;37304;52.216;6.874;2022-11-13T09:29:44;4.33;;;3.23;;
51228;SDS011;37304;52.216;6.874;2022-11-13T09:34:44;4.93;;;3.03;;
51228;SDS011;37304;52.216;6.874;2022-11-13T09:39:45;4.53;;;3.57;;
51228;SDS011;37304;52.216;6.874;2022-11-13T09:44:52;5.05;;;2.95;;
51228;SDS011;37304;52.216;6.874;2022-11-13T09:50:19;3.58;;;2.97;;
51228;SDS011;37304;52.216;6.874;2022-11-13T09:55:25;4.38;;;3.13;;
51228;SDS011;37304;52.216;6.874;2022-11-13T10:00:31;5.43;;;3.10;;
51228;SDS011;37304;52.216;6.874;2022-11-13T10:06:22;5.45;;;3.20;;
51228;SDS011;37304;52.216;6.874;2022-11-13T10:16:13;4.90;;;3.30;;
51228;SDS011;37304;52.216;6.874;2022-11-13T10:21:30;4.13;;;3.05;;
51228;SDS011;37304;52.216;6.874;2022-11-13T10:26:36;4.25;;;3.33;;
51228;SDS011;37304;52.216;6.874;2022-11-13T10:31:42;5.15;;;3.92;;
51228;SDS011;37304;52.216;6.874;2022-11-13T10:37:04;5.20;;;3.40;;
51228;SDS011;37304;52.216;6.874;2022-11-13T10:42:19;8.05;;;3.95;;
51228;SDS011;37304;52.216;6.874;2022-11-13T10:47:31;5.75;;;3.97;;
51228;SDS011;37304;52.216;6.874;2022-11-13T10:52:46;4.55;;;3.10;;
51228;SDS011;37304;52.216;6.874;2022-11-13T10:57:54;4.30;;;3.33;;
51228;SDS011;37304;52.216;6.874;2022-11-13T11:02:56;4.95;;;3.55;;
51228;SDS011;37304;52.216;6.874;2022-11-13T11:07:57;5.13;;;3.53;;
51228;SDS011;37304;52.216;6.874;2022-11-13T11:13:05;6.65;;;3.47;;
51228;SDS011;37304;52.216;6.874;2022-11-13T11:23:56;4.60;;;3.20;;
51228;SDS011;37304;52.216;6.874;2022-11-13T11:29:27;4.97;;;3.40;;
51228;SDS011;37304;52.216;6.874;2022-11-13T11:34:39;5.28;;;3.60;;
51228;SDS011;37304;52.216;6.874;2022-11-13T11:44:51;5.30;;;3.63;;
51228;SDS011;37304;52.216;6.874;2022-11-13T11:50:15;5.60;;;3.20;;
51228;SDS011;37304;52.216;6.874;2022-11-13T12:00:40;4.63;;;3.50;;
51228;SDS011;37304;52.216;6.874;2022-11-13T12:06:50;6.05;;;3.50;;
51228;SDS011;37304;52.216;6.874;2022-11-13T12:11:50;4.88;;;3.00;;
51228;SDS011;37304;52.216;6.874;2022-11-13T12:22:50;4.38;;;3.08;;
51228;SDS011;37304;52.216;6.874;2022-11-13T12:28:03;4.90;;;2.83;;
51228;SDS011;37304;52.216;6.874;2022-11-13T12:38:42;7.53;;;3.10;;
51228;SDS011;37304;52.216;6.874;2022-11-13T12:59:29;4.95;;;2.67;;
51228;SDS011;37304;52.216;6.874;2022-11-13T13:04:39;5.70;;;3.22;;
51228;SDS011;37304;52.216;6.874;2022-11-13T13:15:11;4.65;;;3.25;;
51228;SDS011;37304;52.216;6.874;2022-11-13T13:21:04;4.00;;;2.72;;
51228;SDS011;37304;52.216;6.874;2022-11-13T13:26:14;4.95;;;2.97;;
51228;SDS011;37304;52.216;6.874;2022-11-13T13:31:37;5.28;;;3.35;;
51228;SDS011;37304;52.216;6.874;2022-11-13T13:36:43;4.28;;;3.10;;
51228;SDS011;37304;52.216;6.874;2022-11-13T13:47:39;4.78;;;4.10;;
51228;SDS011;37304;52.216;6.874;2022-11-13T13:52:47;5.63;;;3.60;;
51228;SDS011;37304;52.216;6.874;2022-11-13T13:57:48;4.88;;;3.95;;
51228;SDS011;37304;52.216;6.874;2022-11-13T14:02:50;6.60;;;4.40;;
51228;SDS011;37304;52.216;6.874;2022-11-13T14:13:25;4.95;;;4.10;;
51228;SDS011;37304;52.216;6.874;2022-11-13T14:18:27;7.40;;;4.53;;
51228;SDS011;37304;52.216;6.874;2022-11-13T14:23:36;7.45;;;4.63;;
51228;SDS011;37304;52.216;6.874;2022-11-13T14:28:57;5.70;;;4.25;;
51228;SDS011;37304;52.216;6.874;2022-11-13T14:34:01;6.40;;;3.72;;
51228;SDS011;37304;52.216;6.874;2022-11-13T14:39:18;7.55;;;4.25;;
51228;SDS011;37304;52.216;6.874;2022-11-13T14:44:41;6.22;;;4.13;;
51228;SDS011;37304;52.216;6.874;2022-11-13T14:49:41;5.32;;;3.58;;
51228;SDS011;37304;52.216;6.874;2022-11-13T14:54:44;5.20;;;4.07;;
51228;SDS011;37304;52.216;6.874;2022-11-13T14:59:44;5.10;;;3.63;;
51228;SDS011;37304;52.216;6.874;2022-11-13T15:04:47;5.77;;;3.80;;
51228;SDS011;37304;52.216;6.874;2022-11-13T15:09:48;3.95;;;3.10;;
51228;SDS011;37304;52.216;6.874;2022-11-13T15:14:49;5.65;;;3.70;;
51228;SDS011;37304;52.216;6.874;2022-11-13T15:19:50;5.38;;;4.13;;
51228;SDS011;37304;52.216;6.874;2022-11-13T15:24:52;6.20;;;3.40;;
51228;SDS011;37304;52.216;6.874;2022-11-13T15:29:52;10.43;;;3.23;;
51228;SDS011;37304;52.216;6.874;2022-11-13T15:34:53;4.53;;;3.20;;
51228;SDS011;37304;52.216;6.874;2022-11-13T15:39:55;4.63;;;2.72;;
51228;SDS011;37304;52.216;6.874;2022-11-13T15:44:55;5.13;;;3.10;;
51228;SDS011;37304;52.216;6.874;2022-11-13T15:50:01;4.03;;;2.92;;
51228;SDS011;37304;52.216;6.874;2022-11-13T15:55:05;5.07;;;2.88;;
51228;SDS011;37304;52.216;6.874;2022-11-13T16:00:20;6.15;;;3.28;;
51228;SDS011;37304;52.216;6.874;2022-11-13T16:05:26;6.03;;;3.50;;
51228;SDS011;37304;52.216;6.874;2022-11-13T16:10:29;5.97;;;3.53;;
51228;SDS011;37304;52.216;6.874;2022-11-13T16:15:34;8.57;;;3.33;;
51228;SDS011;37304;52.216;6.874;2022-11-13T16:20:35;6.25;;;4.40;;
51228;SDS011;37304;52.216;6.874;2022-11-13T16:25:38;7.10;;;3.63;;
51228;SDS011;37304;52.216;6.874;2022-11-13T16:30:38;7.45;;;4.50;;
51228;SDS011;37304;52.216;6.874;2022-11-13T16:35:39;9.75;;;5.25;;
51228;SDS011;37304;52.216;6.874;2022-11-13T16:40:39;8.35;;;4.88;;
51228;SDS011;37304;52.216;6.874;2022-11-13T16:45:42;7.93;;;4.90;;
51228;SDS011;37304;52.216;6.874;2022-11-13T16:50:42;9.52;;;5.05;;
51228;SDS011;37304;52.216;6.874;2022-11-13T16:55:43;11.33;;;6.30;;
51228;SDS011;37304;52.216;6.874;2022-11-13T17:00:43;7.18;;;5.40;;
51228;SDS011;37304;52.216;6.874;2022-11-13T17:10:44;8.65;;;5.43;;
51228;SDS011;37304;52.216;6.874;2022-11-13T17:15:45;11.60;;;5.67;;
51228;SDS011;37304;52.216;6.874;2022-11-13T17:20:48;8.73;;;4.33;;
51228;SDS011;37304;52.216;6.874;2022-11-13T17:25:49;8.57;;;4.47;;
51228;SDS011;37304;52.216;6.874;2022-11-13T17:35:53;8.00;;;3.85;;
51228;SDS011;37304;52.216;6.874;2022-11-13T17:40:54;9.77;;;5.50;;
51228;SDS011;37304;52.216;6.874;2022-11-13T17:46:03;13.27;;;5.75;;
51228;SDS011;37304;52.216;6.874;2022-11-13T17:51:11;12.18;;;5.22;;
51228;SDS011;37304;52.216;6.874;2022-11-13T17:56:12;10.15;;;5.55;;
51228;SDS011;37304;52.216;6.874;2022-11-13T18:01:21;10.88;;;6.57;;
51228;SDS011;37304;52.216;6.874;2022-11-13T18:06:25;11.55;;;6.32;;
51228;SDS011;37304;52.216;6.874;2022-11-13T18:11:29;11.35;;;6.47;;
51228;SDS011;37304;52.216;6.874;2022-11-13T18:16:47;8.15;;;5.72;;
51228;SDS011;37304;52.216;6.874;2022-11-13T18:22:00;10.90;;;5.30;;
51228;SDS011;37304;52.216;6.874;2022-11-13T18:27:13;13.07;;;6.78;;
51228;SDS011;37304;52.216;6.874;2022-11-13T18:32:20;8.05;;;4.70;;
51228;SDS011;37304;52.216;6.874;2022-11-13T18:37:25;18.75;;;7.10;;
51228;SDS011;37304;52.216;6.874;2022-11-13T18:42:25;13.13;;;5.87;;
51228;SDS011;37304;52.216;6.874;2022-11-13T18:47:26;12.40;;;6.45;;
51228;SDS011;37304;52.216;6.874;2022-11-13T18:52:26;15.75;;;7.65;;
51228;SDS011;37304;52.216;6.874;2022-11-13T18:57:27;13.60;;;7.75;;
51228;SDS011;37304;52.216;6.874;2022-11-13T19:02:27;13.10;;;7.10;;
51228;SDS011;37304;52.216;6.874;2022-11-13T19:07:28;16.33;;;7.13;;
51228;SDS011;37304;52.216;6.874;2022-11-13T19:12:31;13.80;;;7.32;;
51228;SDS011;37304;52.216;6.874;2022-11-13T19:17:32;14.27;;;6.43;;
51228;SDS011;37304;52.216;6.874;2022-11-13T19:22:33;14.55;;;7.22;;
51228;SDS011;37304;52.216;6.874;2022-11-13T19:27:36;17.65;;;8.68;;
51228;SDS011;37304;52.216;6.874;2022-11-13T19:32:37;11.82;;;5.93;;
51228;SDS011;37304;52.216;6.874;2022-11-13T19:37:39;9.88;;;5.05;;
51228;SDS011;37304;52.216;6.874;2022-11-13T19:42:40;18.37;;;8.50;;
51228;SDS011;37304;52.216;6.874;2022-11-13T19:47:43;15.57;;;9.50;;
51228;SDS011;37304;52.216;6.874;2022-11-13T19:52:44;21.98;;;9.23;;
51228;SDS011;37304;52.216;6.874;2022-11-13T19:57:44;21.00;;;8.82;;
51228;SDS011;37304;52.216;6.874;2022-11-13T20:02:49;18.20;;;8.85;;
51228;SDS011;37304;52.216;6.874;2022-11-13T20:07:53;20.33;;;9.32;;
51228;SDS011;37304;52.216;6.874;2022-11-13T20:13:02;25.67;;;11.57;;
51228;SDS011;37304;52.216;6.874;2022-11-13T20:18:06;22.60;;;10.43;;
51228;SDS011;37304;52.216;6.874;2022-11-13T20:23:07;28.10;;;11.88;;
51228;SDS011;37304;52.216;6.874;2022-11-13T20:28:08;27.40;;;11.63;;
51228;SDS011;37304;52.216;6.874;2022-11-13T20:33:08;27.73;;;13.47;;
51228;SDS011;37304;52.216;6.874;2022-11-13T20:38:09;33.73;;;13.73;;
51228;SDS011;37304;52.216;6.874;2022-11-13T20:43:09;14.55;;;7.10;;
51228;SDS011;37304;52.216;6.874;2022-11-13T20:48:10;23.33;;;10.27;;
51228;SDS011;37304;52.216;6.874;2022-11-13T20:58:11;30.25;;;12.90;;
51228;SDS011;37304;52.216;6.874;2022-11-13T21:03:12;39.87;;;15.37;;
51228;SDS011;37304;52.216;6.874;2022-11-13T21:08:12;16.92;;;10.65;;
51228;SDS011;37304;52.216;6.874;2022-11-13T21:13:13;34.80;;;15.37;;
51228;SDS011;37304;52.216;6.874;2022-11-13T21:18:14;36.22;;;14.10;;
51228;SDS011;37304;52.216;6.874;2022-11-13T21:23:16;30.25;;;13.35;;
51228;SDS011;37304;52.216;6.874;2022-11-13T21:28:17;25.43;;;12.53;;
51228;SDS011;37304;52.216;6.874;2022-11-13T21:33:17;40.83;;;16.57;;
51228;SDS011;37304;52.216;6.874;2022-11-13T21:38:18;38.27;;;13.80;;
51228;SDS011;37304;52.216;6.874;2022-11-13T21:43:18;32.93;;;14.07;;
51228;SDS011;37304;52.216;6.874;2022-11-13T21:48:19;31.87;;;12.30;;
51228;SDS011;37304;52.216;6.874;2022-11-13T21:53:19;34.20;;;13.83;;
51228;SDS011;37304;52.216;6.874;2022-11-13T21:58:29;37.78;;;13.40;;
51228;SDS011;37304;52.216;6.874;2022-11-13T22:03:37;37.33;;;13.90;;
51228;SDS011;37304;52.216;6.874;2022-11-13T22:08:41;34.47;;;13.13;;
51228;SDS011;37304;52.216;6.874;2022-11-13T22:13:42;36.90;;;14.05;;
51228;SDS011;37304;52.216;6.874;2022-11-13T22:18:43;7.93;;;5.33;;
51228;SDS011;37304;52.216;6.874;2022-11-13T22:23:44;36.75;;;15.13;;
51228;SDS011;37304;52.216;6.874;2022-11-13T22:28:45;30.08;;;10.18;;
51228;SDS011;37304;52.216;6.874;2022-11-13T22:33:49;33.83;;;14.07;;
51228;SDS011;37304;52.216;6.874;2022-11-13T22:44:11;13.95;;;7.07;;
51228;SDS011;37304;52.216;6.874;2022-11-13T22:49:13;43.00;;;15.23;;
51228;SDS011;37304;52.216;6.874;2022-11-13T22:54:16;29.63;;;13.32;;
51228;SDS011;37304;52.216;6.874;2022-11-13T22:59:16;35.38;;;14.63;;
51228;SDS011;37304;52.216;6.874;2022-11-13T23:04:20;33.77;;;11.00;;
51228;SDS011;37304;52.216;6.874;2022-11-13T23:09:20;36.65;;;14.60;;
51228;SDS011;37304;52.216;6.874;2022-11-13T23:14:21;38.50;;;15.52;;
51228;SDS011;37304;52.216;6.874;2022-11-13T23:19:21;35.05;;;14.30;;
51228;SDS011;37304;52.216;6.874;2022-11-13T23:24:22;34.90;;;13.93;;
51228;SDS011;37304;52.216;6.874;2022-11-13T23:29:25;27.83;;;11.63;;
51228;SDS011;37304;52.216;6.874;2022-11-13T23:34:28;38.05;;;14.73;;
51228;SDS011;37304;52.216;6.874;2022-11-13T23:39:28;44.73;;;14.37;;
51228;SDS011;37304;52.216;6.874;2022-11-13T23:44:31;39.60;;;14.00;;
51228;SDS011;37304;52.216;6.874;2022-11-13T23:49:32;35.92;;;13.20;;
51228;SDS011;37304;52.216;6.874;2022-11-13T23:54:32;38.43;;;14.70;;
51228;SDS011;37304;52.216;6.874;2022-11-13T23:59:33;34.00;;;13.30;;
